createdAt,value
2023-01-31T00:00:23.298Z,0.26
2023-01-31T00:01:23.273Z,0.01
2023-01-31T00:02:23.313Z,0.09
2023-01-31T00:03:23.382Z,0.01
2023-01-31T00:04:23.333Z,0.34
2023-01-31T00:05:23.335Z,0.11
2023-01-31T00:06:23.344Z,0.00
2023-01-31T00:07:23.359Z,0.04
2023-01-31T00:08:23.374Z,0.00
2023-01-31T00:09:23.391Z,0.00
2023-01-31T00:10:23.388Z,0.01
2023-01-31T00:11:23.394Z,0.19
2023-01-31T00:12:23.450Z,1.05
2023-01-31T00:13:23.420Z,0.00
2023-01-31T00:14:23.443Z,0.00
2023-01-31T00:15:23.484Z,0.11
2023-01-31T00:16:23.472Z,0.13
2023-01-31T00:17:23.505Z,0.00
2023-01-31T00:18:23.479Z,0.01
2023-01-31T00:19:23.496Z,0.05
2023-01-31T00:20:23.519Z,0.00
2023-01-31T00:21:23.504Z,0.00
2023-01-31T00:22:23.579Z,0.00
2023-01-31T00:23:23.569Z,0.00
2023-01-31T00:24:23.553Z,0.00
2023-01-31T00:25:23.593Z,0.00
2023-01-31T00:26:23.608Z,0.00
2023-01-31T00:27:23.603Z,0.00
2023-01-31T00:28:23.603Z,0.00
2023-01-31T00:29:23.603Z,0.00
2023-01-31T00:30:23.610Z,0.00
2023-01-31T00:31:23.884Z,0.00
2023-01-31T00:32:23.643Z,0.00
2023-01-31T00:33:23.662Z,0.00
2023-01-31T00:34:23.679Z,0.00
2023-01-31T00:35:23.699Z,0.00
2023-01-31T00:36:23.697Z,0.00
2023-01-31T00:37:23.697Z,0.00
2023-01-31T00:38:23.735Z,0.00
2023-01-31T00:39:23.712Z,0.00
2023-01-31T00:40:23.754Z,0.00
2023-01-31T00:41:23.745Z,0.23
2023-01-31T00:42:23.783Z,0.24
2023-01-31T00:43:23.774Z,0.41
2023-01-31T00:44:23.790Z,0.01
2023-01-31T00:45:23.781Z,0.01
2023-01-31T00:46:24.014Z,0.00
2023-01-31T00:47:23.833Z,0.00
2023-01-31T00:48:23.855Z,0.00
2023-01-31T00:49:23.856Z,0.00
2023-01-31T00:50:23.851Z,0.00
2023-01-31T00:51:26.358Z,0.00
2023-01-31T00:52:23.940Z,0.04
2023-01-31T00:53:23.942Z,0.02
2023-01-31T00:54:23.970Z,0.00
2023-01-31T00:55:23.935Z,0.00
2023-01-31T00:56:23.979Z,0.00
2023-01-31T00:57:23.973Z,0.00
2023-01-31T00:58:23.994Z,0.00
2023-01-31T00:59:23.993Z,0.00
2023-01-31T01:00:24.009Z,0.00
2023-01-31T01:01:24.013Z,0.00
2023-01-31T01:02:24.040Z,0.00
2023-01-31T01:03:24.040Z,0.00
2023-01-31T01:04:24.049Z,0.00
2023-01-31T01:05:24.068Z,0.00
2023-01-31T01:06:24.057Z,0.00
2023-01-31T01:07:24.076Z,0.00
2023-01-31T01:08:24.134Z,0.00
2023-01-31T01:09:24.131Z,0.00
2023-01-31T01:10:24.135Z,0.00
2023-01-31T01:11:24.172Z,0.03
2023-01-31T01:12:24.195Z,0.00
2023-01-31T01:13:24.186Z,0.49
2023-01-31T01:14:24.176Z,0.23
2023-01-31T01:15:24.191Z,0.42
2023-01-31T01:16:24.277Z,0.01
2023-01-31T01:17:24.192Z,0.51
2023-01-31T01:18:24.259Z,0.14
2023-01-31T01:19:24.227Z,0.42
2023-01-31T01:20:24.256Z,0.40
2023-01-31T01:21:24.231Z,0.01
2023-01-31T01:22:24.258Z,0.02
2023-01-31T01:23:24.284Z,1.19
2023-01-31T01:24:24.324Z,0.52
2023-01-31T01:25:24.315Z,0.05
2023-01-31T01:26:24.324Z,0.26
2023-01-31T01:27:24.361Z,0.12
2023-01-31T01:28:24.357Z,0.67
2023-01-31T01:29:24.341Z,0.24
2023-01-31T01:30:24.330Z,0.36
2023-01-31T01:31:24.450Z,0.09
2023-01-31T01:32:24.450Z,0.82
2023-01-31T01:33:24.417Z,0.05
2023-01-31T01:34:24.437Z,0.88
2023-01-31T01:35:24.448Z,0.06
2023-01-31T01:36:24.467Z,0.23
2023-01-31T01:37:24.433Z,0.00
2023-01-31T01:38:24.484Z,0.00
2023-01-31T01:39:24.489Z,0.00
2023-01-31T01:40:24.498Z,0.00
2023-01-31T01:41:24.515Z,0.00
2023-01-31T01:42:24.521Z,0.00
2023-01-31T01:43:24.546Z,0.01
2023-01-31T01:44:24.536Z,0.00
2023-01-31T01:45:24.850Z,0.00
2023-01-31T01:46:24.583Z,0.00
2023-01-31T01:47:24.593Z,0.00
2023-01-31T01:48:24.589Z,0.00
2023-01-31T01:49:24.592Z,0.00
2023-01-31T01:50:24.652Z,0.00
2023-01-31T01:51:24.669Z,0.00
2023-01-31T01:52:24.638Z,0.03
2023-01-31T01:53:24.648Z,0.01
2023-01-31T01:54:24.686Z,0.00
2023-01-31T01:55:24.651Z,0.00
2023-01-31T01:56:24.676Z,0.03
2023-01-31T01:57:24.755Z,0.01
2023-01-31T01:58:24.703Z,0.00
2023-01-31T01:59:24.792Z,0.00
2023-01-31T02:00:24.703Z,0.00
2023-01-31T02:01:24.778Z,0.00
2023-01-31T02:02:24.845Z,0.00
2023-01-31T02:03:24.773Z,0.00
2023-01-31T02:04:24.790Z,0.00
2023-01-31T02:05:24.807Z,0.00
2023-01-31T02:06:24.820Z,0.00
2023-01-31T02:07:24.793Z,0.00
2023-01-31T02:08:25.442Z,0.00
2023-01-31T02:09:25.287Z,0.01
2023-01-31T02:10:25.311Z,0.00
2023-01-31T02:11:25.141Z,0.00
2023-01-31T02:12:25.143Z,0.00
2023-01-31T02:13:24.911Z,0.00
2023-01-31T02:14:24.863Z,0.00
2023-01-31T02:15:24.896Z,0.00
2023-01-31T02:16:25.014Z,0.00
2023-01-31T02:17:25.579Z,0.00
2023-01-31T02:18:25.356Z,0.00
2023-01-31T02:19:25.351Z,0.00
2023-01-31T02:20:25.273Z,0.00
2023-01-31T02:21:25.091Z,0.07
2023-01-31T02:22:25.065Z,0.01
2023-01-31T02:23:24.999Z,0.00
2023-01-31T02:24:25.029Z,0.00
2023-01-31T02:25:25.588Z,0.00
2023-01-31T02:26:25.027Z,0.00
2023-01-31T02:27:25.531Z,0.00
2023-01-31T02:28:25.420Z,0.00
2023-01-31T02:29:25.625Z,0.00
2023-01-31T02:30:25.232Z,0.00
2023-01-31T02:31:25.329Z,0.00
2023-01-31T02:32:25.101Z,0.00
2023-01-31T02:33:25.191Z,0.00
2023-01-31T02:34:25.203Z,0.00
2023-01-31T02:35:25.718Z,0.00
2023-01-31T02:36:25.669Z,0.00
2023-01-31T02:37:25.612Z,0.00
2023-01-31T02:39:25.288Z,0.00
2023-01-31T02:40:25.397Z,0.00
2023-01-31T02:41:25.260Z,0.00
2023-01-31T02:42:25.236Z,0.00
2023-01-31T02:43:25.220Z,0.00
2023-01-31T02:44:25.241Z,0.00
2023-01-31T02:45:25.648Z,0.00
2023-01-31T02:46:25.294Z,0.00
2023-01-31T02:47:25.217Z,0.00
2023-01-31T02:48:25.526Z,0.00
2023-01-31T02:49:25.205Z,0.00
2023-01-31T02:50:25.245Z,0.00
2023-01-31T02:51:25.266Z,0.00
2023-01-31T02:52:25.261Z,0.00
2023-01-31T02:53:25.222Z,0.00
2023-01-31T02:54:25.254Z,0.00
2023-01-31T02:55:25.690Z,0.00
2023-01-31T02:56:25.221Z,0.00
2023-01-31T02:57:25.258Z,0.16
2023-01-31T02:58:25.229Z,0.00
2023-01-31T02:59:25.287Z,0.00
2023-01-31T03:00:25.256Z,0.00
2023-01-31T03:01:25.437Z,0.00
2023-01-31T03:02:25.338Z,0.01
2023-01-31T03:03:25.263Z,0.00
2023-01-31T03:04:25.286Z,0.00
2023-01-31T03:05:25.886Z,0.00
2023-01-31T03:06:25.340Z,0.00
2023-01-31T03:07:25.260Z,0.00
2023-01-31T03:08:25.253Z,0.00
2023-01-31T03:09:25.240Z,0.00
2023-01-31T03:10:25.274Z,0.00
2023-01-31T03:11:25.316Z,0.00
2023-01-31T03:12:25.275Z,0.00
2023-01-31T03:13:25.259Z,0.00
2023-01-31T03:14:25.291Z,0.00
2023-01-31T03:15:25.456Z,0.00
2023-01-31T03:16:25.316Z,0.00
2023-01-31T03:17:25.234Z,0.00
2023-01-31T03:18:25.259Z,0.00
2023-01-31T03:19:25.286Z,0.01
2023-01-31T03:20:25.281Z,0.11
2023-01-31T03:21:25.241Z,0.00
2023-01-31T03:22:25.265Z,0.00
2023-01-31T03:23:25.277Z,0.00
2023-01-31T03:24:25.455Z,0.01
2023-01-31T03:25:25.300Z,0.00
2023-01-31T03:26:25.285Z,0.00
2023-01-31T03:27:25.266Z,0.00
2023-01-31T03:28:25.261Z,0.00
2023-01-31T03:29:25.292Z,0.00
2023-01-31T03:30:25.296Z,0.00
2023-01-31T03:31:25.419Z,0.00
2023-01-31T03:32:25.386Z,0.00
2023-01-31T03:33:25.274Z,0.00
2023-01-31T03:34:25.266Z,0.00
2023-01-31T03:35:25.320Z,0.00
2023-01-31T03:36:25.313Z,0.00
2023-01-31T03:37:25.256Z,0.00
2023-01-31T03:38:25.237Z,0.00
2023-01-31T03:39:25.310Z,0.00
2023-01-31T03:40:25.297Z,0.00
2023-01-31T03:41:25.307Z,0.00
2023-01-31T03:42:25.297Z,0.00
2023-01-31T03:43:25.260Z,0.00
2023-01-31T03:44:25.319Z,0.00
2023-01-31T03:45:25.274Z,0.00
2023-01-31T03:46:25.298Z,0.00
2023-01-31T03:47:25.330Z,0.00
2023-01-31T03:48:25.344Z,0.00
2023-01-31T03:49:25.335Z,0.00
2023-01-31T03:50:25.275Z,0.00
2023-01-31T03:51:25.318Z,0.00
2023-01-31T03:52:25.317Z,0.00
2023-01-31T03:53:25.309Z,0.00
2023-01-31T03:54:25.334Z,0.00
2023-01-31T03:55:25.329Z,0.00
2023-01-31T03:56:25.300Z,0.00
2023-01-31T03:57:25.317Z,0.00
2023-01-31T03:58:25.348Z,0.00
2023-01-31T03:59:25.252Z,0.00
2023-01-31T04:00:25.336Z,0.00
2023-01-31T04:01:25.338Z,0.00
2023-01-31T04:02:25.363Z,0.00
2023-01-31T04:03:25.274Z,0.00
2023-01-31T04:04:25.336Z,0.00
2023-01-31T04:05:25.323Z,0.00
2023-01-31T04:06:25.294Z,0.00
2023-01-31T04:07:25.314Z,0.00
2023-01-31T04:08:25.287Z,0.00
2023-01-31T04:09:25.279Z,0.00
2023-01-31T04:10:25.307Z,0.00
2023-01-31T04:11:25.443Z,0.00
2023-01-31T04:12:25.285Z,0.00
2023-01-31T04:13:25.293Z,0.00
2023-01-31T04:14:25.371Z,0.00
2023-01-31T04:15:25.303Z,0.00
2023-01-31T04:16:25.346Z,0.00
2023-01-31T04:17:25.310Z,0.00
2023-01-31T04:18:25.301Z,0.00
2023-01-31T04:19:25.312Z,0.00
2023-01-31T04:20:25.324Z,0.00
2023-01-31T04:21:25.332Z,0.00
2023-01-31T04:22:25.310Z,0.00
2023-01-31T04:23:25.340Z,0.00
2023-01-31T04:24:25.339Z,0.00
2023-01-31T04:25:25.303Z,0.00
2023-01-31T04:26:25.418Z,0.00
2023-01-31T04:27:25.348Z,0.00
2023-01-31T04:28:25.290Z,0.00
2023-01-31T04:29:25.336Z,0.00
2023-01-31T04:30:25.351Z,0.00
2023-01-31T04:31:25.478Z,0.00
2023-01-31T04:32:25.354Z,0.00
2023-01-31T04:33:25.380Z,0.00
2023-01-31T04:34:25.333Z,0.00
2023-01-31T04:35:25.310Z,0.00
2023-01-31T04:36:25.344Z,0.00
2023-01-31T04:37:25.362Z,0.00
2023-01-31T04:38:25.353Z,0.00
2023-01-31T04:39:25.353Z,0.00
2023-01-31T04:40:25.317Z,0.00
2023-01-31T04:41:25.342Z,0.00
2023-01-31T04:42:25.347Z,0.00
2023-01-31T04:43:25.309Z,0.00
2023-01-31T04:44:25.426Z,0.00
2023-01-31T04:45:25.392Z,0.00
2023-01-31T04:46:25.442Z,0.00
2023-01-31T04:47:25.365Z,0.00
2023-01-31T04:48:25.326Z,0.00
2023-01-31T04:49:25.332Z,0.00
2023-01-31T04:50:25.360Z,0.00
2023-01-31T04:51:25.357Z,0.00
2023-01-31T04:52:25.378Z,0.00
2023-01-31T04:53:25.347Z,0.00
2023-01-31T04:54:25.348Z,0.00
2023-01-31T04:55:25.343Z,0.00
2023-01-31T04:56:25.376Z,0.00
2023-01-31T04:57:25.339Z,0.00
2023-01-31T04:58:25.316Z,0.00
2023-01-31T04:59:25.346Z,0.00
2023-01-31T05:00:25.348Z,0.00
2023-01-31T05:01:25.353Z,0.00
2023-01-31T05:02:25.382Z,0.00
2023-01-31T05:03:25.375Z,0.00
2023-01-31T05:04:25.368Z,0.00
2023-01-31T05:05:25.370Z,0.00
2023-01-31T05:06:25.378Z,0.00
2023-01-31T05:07:25.338Z,0.00
2023-01-31T05:08:25.409Z,0.00
2023-01-31T05:09:25.386Z,0.00
2023-01-31T05:10:25.327Z,0.00
2023-01-31T05:11:25.365Z,0.00
2023-01-31T05:12:25.353Z,0.00
2023-01-31T05:13:25.487Z,0.00
2023-01-31T05:14:25.423Z,0.00
2023-01-31T05:15:25.342Z,0.00
2023-01-31T05:16:25.397Z,0.00
2023-01-31T05:17:25.368Z,0.00
2023-01-31T05:18:25.393Z,0.00
2023-01-31T05:19:25.393Z,0.00
2023-01-31T05:20:25.391Z,0.00
2023-01-31T05:21:25.409Z,0.00
2023-01-31T05:22:25.429Z,0.00
2023-01-31T05:23:25.615Z,0.00
2023-01-31T05:24:25.447Z,0.00
2023-01-31T05:25:25.504Z,0.00
2023-01-31T05:26:25.655Z,0.00
2023-01-31T05:27:25.585Z,0.00
2023-01-31T05:28:25.567Z,0.00
2023-01-31T05:29:25.577Z,0.00
2023-01-31T05:30:25.626Z,0.00
2023-01-31T05:31:25.707Z,0.00
2023-01-31T05:32:25.643Z,0.00
2023-01-31T05:33:25.580Z,0.00
2023-01-31T05:34:25.655Z,0.00
2023-01-31T05:35:25.663Z,0.00
2023-01-31T05:36:25.639Z,0.00
2023-01-31T05:37:25.651Z,0.00
2023-01-31T05:38:25.672Z,0.00
2023-01-31T05:39:25.748Z,0.00
2023-01-31T05:40:25.711Z,0.00
2023-01-31T05:41:25.712Z,0.00
2023-01-31T05:42:25.769Z,0.00
2023-01-31T05:43:25.760Z,0.00
2023-01-31T05:44:25.763Z,0.00
2023-01-31T05:45:25.860Z,0.00
2023-01-31T05:46:25.747Z,0.00
2023-01-31T05:47:25.806Z,0.00
2023-01-31T05:48:25.855Z,0.00
2023-01-31T05:49:25.813Z,0.00
2023-01-31T05:50:25.835Z,0.00
2023-01-31T05:51:25.800Z,0.00
2023-01-31T05:52:25.883Z,0.00
2023-01-31T05:53:25.897Z,0.00
2023-01-31T05:54:25.862Z,0.00
2023-01-31T05:55:25.937Z,0.00
2023-01-31T05:56:25.917Z,0.00
2023-01-31T05:57:25.882Z,0.00
2023-01-31T05:58:25.883Z,0.00
2023-01-31T05:59:25.858Z,0.00
2023-01-31T06:00:25.912Z,0.00
2023-01-31T06:01:25.905Z,0.00
2023-01-31T06:02:25.968Z,0.00
2023-01-31T06:03:25.958Z,0.00
2023-01-31T06:04:25.894Z,0.00
2023-01-31T06:05:25.905Z,0.00
2023-01-31T06:06:25.996Z,0.00
2023-01-31T06:07:25.953Z,0.00
2023-01-31T06:08:25.936Z,0.00
2023-01-31T06:09:26.088Z,0.00
2023-01-31T06:10:26.142Z,0.00
2023-01-31T06:11:26.201Z,0.00
2023-01-31T06:12:26.159Z,0.00
2023-01-31T06:13:26.149Z,0.00
2023-01-31T06:14:26.204Z,0.00
2023-01-31T06:15:26.289Z,0.00
2023-01-31T06:16:27.533Z,0.00
2023-01-31T06:17:29.398Z,0.00
2023-01-31T06:18:27.444Z,0.00
2023-01-31T06:19:27.407Z,0.00
2023-01-31T06:20:27.472Z,0.00
2023-01-31T06:21:27.604Z,0.00
2023-01-31T06:22:27.470Z,0.00
2023-01-31T06:23:27.543Z,0.00
2023-01-31T06:24:27.483Z,0.00
2023-01-31T06:25:27.444Z,0.00
2023-01-31T06:26:27.523Z,0.00
2023-01-31T06:27:27.475Z,0.02
2023-01-31T06:28:27.456Z,0.00
2023-01-31T06:29:27.431Z,0.01
2023-01-31T06:30:27.580Z,0.01
2023-01-31T06:31:27.573Z,0.00
2023-01-31T06:32:27.478Z,0.00
2023-01-31T06:33:42.152Z,0.00
2023-01-31T06:34:27.467Z,0.00
2023-01-31T06:35:27.484Z,0.00
2023-01-31T06:36:27.454Z,0.00
2023-01-31T06:37:27.508Z,0.00
2023-01-31T06:38:27.491Z,0.00
2023-01-31T06:39:27.459Z,0.00
2023-01-31T06:40:27.442Z,0.00
2023-01-31T06:41:27.452Z,0.00
2023-01-31T06:42:27.457Z,0.00
2023-01-31T06:43:27.458Z,0.00
2023-01-31T06:44:27.631Z,0.00
2023-01-31T06:45:27.484Z,0.25
2023-01-31T06:46:27.493Z,0.03
2023-01-31T06:47:27.480Z,0.00
2023-01-31T06:48:27.567Z,0.02
2023-01-31T06:49:27.477Z,0.00
2023-01-31T06:50:27.496Z,0.00
2023-01-31T06:51:27.461Z,0.00
2023-01-31T06:52:27.470Z,0.00
2023-01-31T06:53:27.468Z,0.01
2023-01-31T06:54:27.463Z,0.01
2023-01-31T06:55:27.508Z,0.02
2023-01-31T06:56:27.485Z,0.36
2023-01-31T06:57:27.511Z,0.40
2023-01-31T06:58:27.489Z,0.02
2023-01-31T06:59:27.468Z,0.00
2023-01-31T07:00:27.496Z,0.00
2023-01-31T07:01:27.542Z,0.00
2023-01-31T07:02:27.513Z,0.00
2023-01-31T07:03:27.559Z,0.00
2023-01-31T07:04:27.605Z,0.29
2023-01-31T07:05:27.475Z,0.15
2023-01-31T07:06:27.526Z,0.02
2023-01-31T07:07:27.490Z,0.01
2023-01-31T07:08:27.492Z,0.04
2023-01-31T07:09:27.486Z,0.43
2023-01-31T07:10:27.468Z,0.00
2023-01-31T07:11:27.583Z,0.00
2023-01-31T07:12:27.493Z,0.00
2023-01-31T07:13:27.499Z,0.00
2023-01-31T07:14:27.500Z,0.00
2023-01-31T07:15:27.518Z,0.22
2023-01-31T07:16:27.702Z,0.23
2023-01-31T07:17:27.512Z,0.08
2023-01-31T07:18:27.508Z,0.26
2023-01-31T07:19:27.515Z,0.01
2023-01-31T07:20:27.486Z,0.03
2023-01-31T07:21:27.593Z,1.26
2023-01-31T07:22:27.497Z,0.02
2023-01-31T07:23:27.554Z,0.54
2023-01-31T07:24:27.563Z,0.09
2023-01-31T07:25:27.581Z,1.13
2023-01-31T07:26:27.542Z,1.02
2023-01-31T07:27:27.533Z,0.55
2023-01-31T07:28:27.582Z,0.57
2023-01-31T07:29:27.527Z,0.00
2023-01-31T07:30:27.559Z,0.00
2023-01-31T07:31:27.528Z,0.70
2023-01-31T07:32:27.522Z,0.51
2023-01-31T07:33:27.503Z,0.02
2023-01-31T07:34:27.512Z,1.01
2023-01-31T07:35:27.541Z,0.78
2023-01-31T07:36:27.514Z,0.07
2023-01-31T07:37:27.543Z,0.01
2023-01-31T07:38:27.537Z,0.01
2023-01-31T07:39:27.515Z,0.02
2023-01-31T07:40:27.503Z,0.28
2023-01-31T07:41:27.643Z,0.17
2023-01-31T07:42:27.526Z,0.61
2023-01-31T07:43:27.519Z,0.41
2023-01-31T07:44:27.540Z,0.00
2023-01-31T07:45:27.492Z,0.02
2023-01-31T07:46:27.601Z,0.31
2023-01-31T07:47:27.535Z,0.14
2023-01-31T07:48:27.520Z,0.60
2023-01-31T07:49:27.508Z,0.17
2023-01-31T07:50:27.664Z,0.89
2023-01-31T07:51:27.553Z,0.61
2023-01-31T07:52:27.518Z,0.10
2023-01-31T07:53:27.783Z,0.00
2023-01-31T07:54:27.588Z,0.15
2023-01-31T07:55:27.556Z,0.60
2023-01-31T07:56:27.511Z,0.44
2023-01-31T07:57:27.524Z,0.02
2023-01-31T07:58:27.675Z,0.01
2023-01-31T07:59:27.524Z,0.09
2023-01-31T08:00:27.630Z,0.24
2023-01-31T08:01:27.565Z,0.00
2023-01-31T08:02:27.541Z,0.48
2023-01-31T08:03:27.544Z,0.24
2023-01-31T08:04:27.663Z,0.00
2023-01-31T08:05:27.533Z,0.04
2023-01-31T08:06:27.578Z,0.40
2023-01-31T08:07:27.540Z,0.05
2023-01-31T08:08:27.564Z,0.10
2023-01-31T08:09:27.519Z,0.19
2023-01-31T08:10:27.537Z,0.06
2023-01-31T08:11:27.556Z,0.03
2023-01-31T08:12:27.525Z,0.01
2023-01-31T08:13:27.580Z,0.00
2023-01-31T08:14:27.522Z,0.00
2023-01-31T08:15:27.531Z,0.11
2023-01-31T08:16:27.542Z,0.67
2023-01-31T08:17:27.738Z,0.60
2023-01-31T08:18:27.557Z,0.03
2023-01-31T08:19:27.569Z,0.84
2023-01-31T08:20:27.533Z,0.10
2023-01-31T08:21:27.563Z,1.86
2023-01-31T08:22:27.555Z,0.88
2023-01-31T08:23:27.603Z,0.01
2023-01-31T08:24:27.605Z,0.44
2023-01-31T08:25:27.540Z,0.55
2023-01-31T08:26:27.608Z,0.65
2023-01-31T08:27:27.549Z,0.37
2023-01-31T08:28:27.561Z,0.08
2023-01-31T08:29:27.609Z,0.00
2023-01-31T08:30:27.701Z,0.00
2023-01-31T08:31:27.623Z,0.00
2023-01-31T08:32:27.740Z,1.07
2023-01-31T08:33:27.548Z,0.76
2023-01-31T08:34:27.651Z,0.45
2023-01-31T08:35:27.556Z,0.93
2023-01-31T08:36:27.571Z,0.37
2023-01-31T08:37:27.574Z,0.39
2023-01-31T08:38:27.627Z,0.39
2023-01-31T08:39:27.559Z,0.27
2023-01-31T08:40:28.026Z,1.32
2023-01-31T08:41:27.938Z,0.85
2023-01-31T08:42:27.928Z,0.56
2023-01-31T08:43:27.996Z,0.20
2023-01-31T08:44:27.953Z,0.00
2023-01-31T08:45:27.923Z,0.09
2023-01-31T08:46:27.996Z,0.21
2023-01-31T08:47:27.948Z,1.45
2023-01-31T08:48:27.941Z,0.40
2023-01-31T08:49:27.936Z,0.71
2023-01-31T08:50:28.281Z,1.45
2023-01-31T08:51:27.947Z,0.81
2023-01-31T08:52:27.950Z,1.07
2023-01-31T08:53:27.959Z,0.76
2023-01-31T08:54:27.976Z,1.26
2023-01-31T08:55:27.944Z,2.94
2023-01-31T08:56:28.085Z,0.88
2023-01-31T08:57:27.934Z,0.31
2023-01-31T08:58:27.991Z,0.04
2023-01-31T08:59:27.965Z,0.66
2023-01-31T09:00:27.959Z,0.58
2023-01-31T09:01:28.037Z,0.07
2023-01-31T09:02:27.949Z,0.24
2023-01-31T09:03:27.985Z,0.29
2023-01-31T09:04:27.952Z,0.30
2023-01-31T09:05:27.954Z,1.33
2023-01-31T09:06:27.958Z,0.43
2023-01-31T09:07:28.128Z,1.07
2023-01-31T09:08:28.032Z,1.57
2023-01-31T09:09:29.893Z,1.05
2023-01-31T09:10:27.986Z,0.48
2023-01-31T09:11:27.992Z,0.94
2023-01-31T09:12:27.967Z,1.60
2023-01-31T09:13:28.033Z,1.14
2023-01-31T09:14:27.954Z,0.41
2023-01-31T09:15:27.979Z,2.03
2023-01-31T09:16:28.025Z,1.25
2023-01-31T09:17:28.656Z,1.15
2023-01-31T09:18:27.959Z,1.41
2023-01-31T09:19:27.975Z,1.78
2023-01-31T09:20:28.697Z,1.70
2023-01-31T09:21:27.983Z,0.84
2023-01-31T09:22:28.559Z,1.02
2023-01-31T09:23:27.958Z,1.15
2023-01-31T09:24:28.537Z,0.59
2023-01-31T09:25:43.445Z,0.94
2023-01-31T09:26:28.100Z,0.03
2023-01-31T09:27:28.625Z,0.27
2023-01-31T09:28:28.633Z,0.96
2023-01-31T09:29:28.578Z,0.76
2023-01-31T09:30:28.750Z,0.56
2023-01-31T09:31:28.665Z,1.19
2023-01-31T09:32:28.616Z,0.91
2023-01-31T09:33:27.972Z,0.30
2023-01-31T09:34:28.620Z,0.36
2023-01-31T09:35:27.990Z,1.20
2023-01-31T09:36:28.541Z,0.52
2023-01-31T09:37:28.435Z,0.86
2023-01-31T09:38:28.537Z,0.01
2023-01-31T09:39:28.391Z,0.59
2023-01-31T09:40:28.444Z,0.74
2023-01-31T09:41:28.503Z,0.50
2023-01-31T09:42:28.354Z,1.12
2023-01-31T09:43:28.520Z,0.87
2023-01-31T09:44:28.415Z,1.37
2023-01-31T09:45:28.410Z,0.29
2023-01-31T09:46:28.494Z,0.41
2023-01-31T09:47:28.349Z,0.37
2023-01-31T09:48:28.431Z,0.49
2023-01-31T09:49:28.414Z,1.62
2023-01-31T09:50:28.295Z,1.12
2023-01-31T09:51:28.502Z,0.42
2023-01-31T09:52:28.525Z,0.99
2023-01-31T09:53:28.334Z,0.97
2023-01-31T09:54:28.356Z,1.17
2023-01-31T09:55:28.524Z,1.37
2023-01-31T09:56:28.435Z,2.13
2023-01-31T09:57:28.447Z,0.77
2023-01-31T09:58:28.343Z,0.91
2023-01-31T09:59:28.265Z,0.20
2023-01-31T10:00:27.987Z,0.89
2023-01-31T10:01:28.199Z,1.46
2023-01-31T10:02:28.383Z,1.80
2023-01-31T10:03:28.258Z,0.96
2023-01-31T10:04:28.188Z,1.38
2023-01-31T10:05:28.153Z,1.48
2023-01-31T10:06:28.202Z,1.30
2023-01-31T10:07:28.169Z,0.77
2023-01-31T10:08:28.289Z,0.65
2023-01-31T10:09:28.131Z,0.61
2023-01-31T10:10:28.059Z,1.36
2023-01-31T10:11:28.154Z,1.03
2023-01-31T10:12:28.023Z,0.69
2023-01-31T10:13:28.100Z,0.57
2023-01-31T10:14:28.022Z,0.24
2023-01-31T10:15:28.107Z,1.40
2023-01-31T10:16:28.097Z,1.55
2023-01-31T10:17:28.175Z,1.23
2023-01-31T10:18:28.083Z,1.74
2023-01-31T10:19:28.011Z,0.80
2023-01-31T10:20:28.072Z,0.07
2023-01-31T10:21:28.068Z,0.57
2023-01-31T10:22:28.020Z,1.79
2023-01-31T10:23:28.053Z,1.39
2023-01-31T10:24:28.016Z,1.31
2023-01-31T10:25:28.209Z,0.64
2023-01-31T10:26:28.150Z,0.70
2023-01-31T10:27:28.039Z,1.10
2023-01-31T10:28:28.072Z,1.25
2023-01-31T10:29:28.249Z,0.23
2023-01-31T10:30:28.119Z,0.38
2023-01-31T10:31:28.178Z,1.40
2023-01-31T10:32:28.064Z,1.03
2023-01-31T10:33:28.086Z,0.99
2023-01-31T10:34:28.059Z,0.64
2023-01-31T10:35:28.150Z,0.30
2023-01-31T10:36:28.078Z,0.45
2023-01-31T10:37:28.073Z,0.04
2023-01-31T10:38:28.112Z,0.00
2023-01-31T10:39:28.070Z,1.55
2023-01-31T10:40:28.080Z,1.26
2023-01-31T10:41:28.062Z,1.31
2023-01-31T10:42:28.077Z,1.33
2023-01-31T10:43:28.051Z,1.43
2023-01-31T10:44:28.090Z,0.50
2023-01-31T10:45:28.070Z,1.77
2023-01-31T10:46:28.055Z,1.27
2023-01-31T10:47:28.059Z,0.00
2023-01-31T10:48:28.067Z,1.03
2023-01-31T10:49:28.086Z,0.37
2023-01-31T10:50:28.100Z,2.68
2023-01-31T10:51:28.072Z,1.30
2023-01-31T10:52:28.076Z,2.31
2023-01-31T10:53:28.180Z,1.18
2023-01-31T10:54:28.102Z,0.25
2023-01-31T10:55:28.061Z,0.22
2023-01-31T10:56:28.085Z,0.69
2023-01-31T10:57:28.096Z,1.09
2023-01-31T10:58:28.112Z,2.10
2023-01-31T10:59:28.132Z,0.43
2023-01-31T11:00:28.071Z,0.64
2023-01-31T11:01:28.220Z,0.52
2023-01-31T11:02:28.095Z,0.27
2023-01-31T11:03:34.013Z,0.83
2023-01-31T11:04:28.080Z,0.52
2023-01-31T11:05:28.093Z,1.99
2023-01-31T11:06:28.082Z,1.53
2023-01-31T11:07:28.093Z,1.35
2023-01-31T11:08:28.086Z,1.13
2023-01-31T11:09:28.126Z,0.48
2023-01-31T11:10:28.054Z,0.58
2023-01-31T11:11:28.105Z,1.51
2023-01-31T11:12:28.103Z,1.13
2023-01-31T11:13:28.212Z,1.69
2023-01-31T11:14:28.100Z,0.80
2023-01-31T11:15:28.083Z,0.78
2023-01-31T11:16:28.214Z,0.06
2023-01-31T11:17:28.147Z,1.50
2023-01-31T11:18:28.109Z,1.60
2023-01-31T11:19:28.130Z,1.25
2023-01-31T11:20:28.127Z,1.22
2023-01-31T11:21:28.105Z,0.98
2023-01-31T11:22:28.147Z,1.65
2023-01-31T11:23:28.172Z,1.05
2023-01-31T11:24:29.974Z,1.83
2023-01-31T11:25:28.127Z,2.74
2023-01-31T11:26:28.141Z,1.51
2023-01-31T11:27:28.108Z,1.16
2023-01-31T11:28:28.110Z,0.82
2023-01-31T11:29:28.138Z,1.59
2023-01-31T11:30:28.130Z,0.70
2023-01-31T11:31:28.159Z,0.34
2023-01-31T11:32:28.107Z,1.40
2023-01-31T11:33:28.104Z,0.58
2023-01-31T11:34:28.188Z,1.97
2023-01-31T11:35:28.131Z,2.58
2023-01-31T11:36:28.129Z,1.69
2023-01-31T11:37:28.102Z,0.75
2023-01-31T11:38:28.104Z,0.37
2023-01-31T11:39:28.134Z,0.91
2023-01-31T11:40:28.155Z,0.23
2023-01-31T11:41:28.164Z,0.97
2023-01-31T11:42:28.187Z,1.19
2023-01-31T11:43:28.152Z,1.27
2023-01-31T11:44:28.151Z,0.69
2023-01-31T11:45:28.145Z,1.32
2023-01-31T11:46:28.169Z,1.40
2023-01-31T11:47:28.135Z,0.50
2023-01-31T11:48:28.137Z,0.62
2023-01-31T11:49:28.126Z,0.87
2023-01-31T11:50:28.369Z,1.15
2023-01-31T11:51:28.109Z,1.83
2023-01-31T11:52:28.240Z,1.54
2023-01-31T11:53:28.159Z,1.60
2023-01-31T11:54:28.143Z,0.90
2023-01-31T11:55:28.133Z,1.96
2023-01-31T11:56:28.187Z,1.54
2023-01-31T11:57:28.212Z,1.00
2023-01-31T11:58:28.169Z,0.74
2023-01-31T11:59:28.231Z,0.31
2023-01-31T12:00:28.155Z,0.66
2023-01-31T12:01:28.146Z,0.94
2023-01-31T12:02:28.220Z,0.82
2023-01-31T12:03:28.213Z,2.14
2023-01-31T12:04:28.140Z,1.54
2023-01-31T12:05:28.197Z,1.12
2023-01-31T12:06:29.750Z,1.20
2023-01-31T12:07:28.151Z,0.79
2023-01-31T12:08:29.184Z,1.67
2023-01-31T12:09:28.199Z,0.83
2023-01-31T12:10:28.184Z,1.58
2023-01-31T12:11:28.151Z,1.12
2023-01-31T12:12:28.151Z,0.88
2023-01-31T12:13:28.165Z,0.89
2023-01-31T12:14:28.181Z,0.60
2023-01-31T12:15:28.209Z,1.04
2023-01-31T12:16:28.211Z,1.28
2023-01-31T12:17:28.169Z,2.04
2023-01-31T12:18:28.886Z,0.53
2023-01-31T12:19:28.205Z,1.32
2023-01-31T12:20:29.136Z,0.39
2023-01-31T12:21:28.150Z,0.55
2023-01-31T12:22:28.141Z,0.80
2023-01-31T12:23:28.179Z,0.78
2023-01-31T12:24:28.164Z,1.02
2023-01-31T12:25:28.156Z,0.61
2023-01-31T12:26:28.312Z,0.86
2023-01-31T12:27:28.160Z,1.32
2023-01-31T12:28:28.150Z,0.71
2023-01-31T12:29:28.152Z,0.59
2023-01-31T12:30:28.191Z,0.34
2023-01-31T12:31:28.265Z,0.08
2023-01-31T12:32:28.211Z,0.56
2023-01-31T12:33:28.158Z,1.70
2023-01-31T12:34:28.157Z,1.25
2023-01-31T12:35:28.230Z,1.43
2023-01-31T12:36:28.270Z,0.28
2023-01-31T12:37:28.158Z,0.07
2023-01-31T12:38:28.153Z,0.40
2023-01-31T12:39:28.186Z,2.23
2023-01-31T12:40:30.511Z,0.68
2023-01-31T12:41:28.210Z,0.13
2023-01-31T12:42:28.210Z,0.77
2023-01-31T12:43:28.187Z,0.10
2023-01-31T12:44:28.194Z,0.32
2023-01-31T12:45:28.170Z,0.46
2023-01-31T12:46:28.380Z,1.03
2023-01-31T12:47:28.185Z,0.96
2023-01-31T12:48:28.161Z,1.56
2023-01-31T12:49:28.191Z,0.96
2023-01-31T12:50:28.209Z,1.36
2023-01-31T12:51:28.227Z,0.01
2023-01-31T12:52:28.177Z,0.29
2023-01-31T12:53:28.187Z,1.29
2023-01-31T12:54:28.190Z,0.79
2023-01-31T12:55:28.155Z,1.03
2023-01-31T12:56:28.229Z,0.53
2023-01-31T12:57:28.226Z,1.30
2023-01-31T12:58:28.216Z,0.91
2023-01-31T12:59:28.252Z,1.54
2023-01-31T13:00:28.219Z,1.65
2023-01-31T13:01:28.308Z,1.40
2023-01-31T13:02:28.271Z,1.03
2023-01-31T13:03:28.157Z,1.31
2023-01-31T13:04:28.203Z,1.01
2023-01-31T13:05:28.663Z,2.04
2023-01-31T13:06:28.211Z,0.78
2023-01-31T13:07:28.228Z,1.46
2023-01-31T13:08:28.343Z,1.28
2023-01-31T13:09:28.346Z,0.24
2023-01-31T13:10:28.184Z,0.00
2023-01-31T13:11:28.225Z,0.98
2023-01-31T13:12:28.226Z,0.72
2023-01-31T13:13:28.212Z,0.11
2023-01-31T13:14:28.249Z,0.02
2023-01-31T13:15:28.189Z,0.00
2023-01-31T13:16:28.231Z,0.64
2023-01-31T13:17:28.209Z,1.06
2023-01-31T13:18:28.221Z,1.30
2023-01-31T13:19:28.222Z,1.17